Time;durP1;ratioP1;P1;durP2;ratioP2;P2;SDS_P1;SDS_P2;PMS_P1;PMS_P2;Temp;Humidity;BMP_temperature;BMP_pressure;BME280_temperature;BME280_humidity;BME280_pressure;Samples;Min_cycle;Max_cycle;Signal;HPM_P1;HPM_P2
2022/06/08 00:00:42;;;;;;;0.00;0.00;;;;;;;;;;5052603;28;20017;-64
2022/06/08 00:03:11;;;;;;;0.00;0.00;;;;;;;;;;5066258;28;20030;-62
2022/06/08 00:05:37;;;;;;;0.00;0.00;;;;;;;;;;5063610;28;20033;-63
2022/06/08 00:08:02;;;;;;;0.00;0.00;;;;;;;;;;5062170;28;20031;-63
2022/06/08 00:10:28;;;;;;;0.00;0.00;;;;;;;;;;5066626;28;20029;-62
2022/06/08 00:12:53;;;;;;;0.00;0.00;;;;;;;;;;5062717;28;20032;-62
2022/06/08 00:15:19;;;;;;;0.00;0.00;;;;;;;;;;5067114;28;20416;-63
2022/06/08 00:17:44;;;;;;;0.00;0.00;;;;;;;;;;5063462;28;20391;-63
2022/06/08 00:20:10;;;;;;;0.00;0.00;;;;;;;;;;5060693;28;20017;-63
2022/06/08 00:22:36;;;;;;;0.00;0.00;;;;;;;;;;5059467;28;20043;-63
2022/06/08 00:25:02;;;;;;;0.17;0.17;;;;;;;;;;5068540;28;20530;-64
2022/06/08 00:27:27;;;;;;;0.00;0.00;;;;;;;;;;5060078;28;20526;-63
2022/06/08 00:29:52;;;;;;;0.00;0.00;;;;;;;;;;5054255;28;20056;-63
2022/06/08 00:32:18;;;;;;;0.00;0.00;;;;;;;;;;5065841;28;20104;-63
2022/06/08 00:34:43;;;;;;;0.00;0.00;;;;;;;;;;5056605;28;20405;-62
2022/06/08 00:37:09;;;;;;;0.00;0.00;;;;;;;;;;5066314;28;20050;-63
2022/06/08 00:39:34;;;;;;;0.00;0.00;;;;;;;;;;5065720;28;20012;-61
2022/06/08 00:42:01;;;;;;;0.00;0.00;;;;;;;;;;5060184;28;20013;-63
2022/06/08 00:44:33;;;;;;;0.00;0.00;;;;;;;;;;5059046;28;20024;-63
2022/06/08 00:47:00;;;;;;;0.00;0.00;;;;;;;;;;5063170;28;20382;-64
2022/06/08 00:49:31;;;;;;;0.00;0.00;;;;;;;;;;5066429;28;20429;-63
2022/06/08 00:51:57;;;;;;;0.00;0.00;;;;;;;;;;5065878;28;20059;-63
2022/06/08 00:54:25;;;;;;;0.00;0.00;;;;;;;;;;5060506;28;20112;-63
2022/06/08 00:56:53;;;;;;;0.00;0.00;;;;;;;;;;5061685;28;20017;-63
2022/06/08 00:59:19;;;;;;;0.00;0.00;;;;;;;;;;5055963;28;20034;-62
2022/06/08 01:01:44;;;;;;;0.00;0.00;;;;;;;;;;5067172;28;20100;-63
2022/06/08 01:04:11;;;;;;;0.00;0.00;;;;;;;;;;5056529;28;20021;-63
2022/06/08 01:06:37;;;;;;;0.00;0.00;;;;;;;;;;5065120;28;20032;-63
2022/06/08 01:09:02;;;;;;;0.00;0.00;;;;;;;;;;5065363;28;20024;-63
2022/06/08 01:11:38;;;;;;;0.00;0.00;;;;;;;;;;5058534;28;20021;-63
2022/06/08 01:14:05;;;;;;;0.00;0.00;;;;;;;;;;5064511;28;20028;-63
2022/06/08 01:16:30;;;;;;;0.00;0.00;;;;;;;;;;5062826;28;20017;-62
2022/06/08 01:18:56;;;;;;;0.00;0.00;;;;;;;;;;5066078;28;20024;-62
2022/06/08 01:21:21;;;;;;;0.00;0.00;;;;;;;;;;5060176;28;20016;-62
2022/06/08 01:23:51;;;;;;;0.00;0.00;;;;;;;;;;5060633;28;20032;-63
2022/06/08 01:26:21;;;;;;;0.00;0.00;;;;;;;;;;5056461;28;20282;-63
2022/06/08 01:28:52;;;;;;;0.00;0.00;;;;;;;;;;5060655;28;20023;-63
2022/06/08 01:31:28;;;;;;;0.00;0.00;;;;;;;;;;5059518;28;20033;-63
2022/06/08 01:33:59;;;;;;;0.00;0.00;;;;;;;;;;5064779;28;20036;-64
2022/06/08 01:36:32;;;;;;;0.00;0.00;;;;;;;;;;5060294;28;20032;-63
2022/06/08 01:39:12;;;;;;;0.00;0.00;;;;;;;;;;5060509;28;20107;-63
2022/06/08 01:41:37;;;;;;;0.00;0.00;;;;;;;;;;5056209;28;20102;-64
2022/06/08 01:44:21;;;;;;;0.00;0.00;;;;;;;;;;5058487;28;20136;-64
2022/06/08 01:46:59;;;;;;;0.00;0.00;;;;;;;;;;5062291;28;20328;-64
2022/06/08 01:49:30;;;;;;;0.00;0.00;;;;;;;;;;5065225;28;20028;-64
2022/06/08 01:51:55;;;;;;;0.00;0.00;;;;;;;;;;5060644;28;20055;-62
2022/06/08 01:54:22;;;;;;;0.00;0.00;;;;;;;;;;5057743;28;20025;-63
2022/06/08 01:56:50;;;;;;;0.00;0.00;;;;;;;;;;5054384;28;20615;-63
2022/06/08 01:59:16;;;;;;;0.00;0.00;;;;;;;;;;5058680;28;20373;-63
2022/06/08 02:01:49;;;;;;;0.00;0.00;;;;;;;;;;5060479;28;20032;-63
2022/06/08 02:04:20;;;;;;;0.00;0.00;;;;;;;;;;5066321;28;20072;-63
2022/06/08 02:06:57;;;;;;;0.00;0.00;;;;;;;;;;5064933;28;20024;-64
2022/06/08 02:09:26;;;;;;;0.00;0.00;;;;;;;;;;5054050;28;20034;-64
2022/06/08 02:11:55;;;;;;;0.00;0.00;;;;;;;;;;5053763;28;20024;-64
2022/06/08 02:14:27;;;;;;;0.00;0.00;;;;;;;;;;5057575;28;20032;-62
2022/06/08 02:16:54;;;;;;;0.00;0.00;;;;;;;;;;5059784;28;20039;-63
2022/06/08 02:19:26;;;;;;;0.00;0.00;;;;;;;;;;5059561;28;20029;-63
2022/06/08 02:21:53;;;;;;;0.00;0.00;;;;;;;;;;5061559;28;20039;-64
2022/06/08 02:24:21;;;;;;;0.00;0.00;;;;;;;;;;5057193;28;20083;-64
2022/06/08 02:26:54;;;;;;;0.00;0.00;;;;;;;;;;5056167;28;20029;-64
2022/06/08 02:29:21;;;;;;;0.00;0.00;;;;;;;;;;5063718;28;20518;-63
2022/06/08 02:31:49;;;;;;;0.00;0.00;;;;;;;;;;5065189;28;20031;-64
2022/06/08 02:34:28;;;;;;;0.00;0.00;;;;;;;;;;5067708;28;20039;-63
2022/06/08 02:36:56;;;;;;;0.00;0.00;;;;;;;;;;5064809;28;20036;-62
2022/06/08 02:39:21;;;;;;;0.00;0.00;;;;;;;;;;5065649;28;20120;-63
2022/06/08 02:41:48;;;;;;;0.00;0.00;;;;;;;;;;5069852;28;20514;-62
2022/06/08 02:44:16;;;;;;;0.00;0.00;;;;;;;;;;5068317;28;20274;-64
2022/06/08 02:46:54;;;;;;;0.00;0.00;;;;;;;;;;5063716;28;20488;-63
2022/06/08 02:49:19;;;;;;;0.40;0.40;;;;;;;;;;5068427;28;20066;-62
2022/06/08 02:51:46;;;;;;;0.00;0.00;;;;;;;;;;5062574;28;20032;-63
2022/06/08 02:54:23;;;;;;;0.00;0.00;;;;;;;;;;5056909;28;20037;-63
2022/06/08 02:57:08;;;;;;;0.00;0.00;;;;;;;;;;5060641;28;20748;-63
2022/06/08 02:59:34;;;;;;;0.00;0.00;;;;;;;;;;5060922;28;20045;-63
2022/06/08 03:02:13;;;;;;;0.00;0.00;;;;;;;;;;5068509;28;20061;-64
2022/06/08 03:04:47;;;;;;;0.00;0.00;;;;;;;;;;5061744;28;20279;-64
2022/06/08 03:07:18;;;;;;;0.00;0.00;;;;;;;;;;5063574;28;20033;-63
2022/06/08 03:09:44;;;;;;;0.00;0.00;;;;;;;;;;5067930;28;20025;-62
2022/06/08 03:12:22;;;;;;;0.00;0.00;;;;;;;;;;5058050;28;20028;-63
2022/06/08 03:14:48;;;;;;;0.00;0.00;;;;;;;;;;5067811;28;20027;-63
2022/06/08 03:17:15;;;;;;;0.00;0.00;;;;;;;;;;5062998;28;20505;-62
2022/06/08 03:19:40;;;;;;;0.10;0.10;;;;;;;;;;5068262;28;20016;-65
2022/06/08 03:22:06;;;;;;;0.10;0.10;;;;;;;;;;5056669;28;20346;-63
2022/06/08 03:24:31;;;;;;;0.00;0.00;;;;;;;;;;5063147;28;20029;-63
2022/06/08 03:26:58;;;;;;;0.00;0.00;;;;;;;;;;5067870;28;20028;-63
2022/06/08 03:29:24;;;;;;;0.00;0.00;;;;;;;;;;5068817;28;20060;-63
2022/06/08 03:31:49;;;;;;;0.00;0.00;;;;;;;;;;5065110;28;20021;-63
2022/06/08 03:34:15;;;;;;;0.00;0.00;;;;;;;;;;5058189;28;20043;-64
2022/06/08 03:36:40;;;;;;;0.00;0.00;;;;;;;;;;5066549;28;20096;-63
2022/06/08 03:39:06;;;;;;;0.00;0.00;;;;;;;;;;5069009;28;20139;-63
2022/06/08 03:41:32;;;;;;;0.00;0.00;;;;;;;;;;5065599;28;20020;-63
2022/06/08 03:43:57;;;;;;;0.08;0.08;;;;;;;;;;5068901;28;20488;-63
2022/06/08 03:46:23;;;;;;;0.00;0.00;;;;;;;;;;5068397;28;20013;-63
2022/06/08 03:48:50;;;;;;;0.00;0.00;;;;;;;;;;5062155;28;20535;-64
2022/06/08 03:51:16;;;;;;;0.00;0.00;;;;;;;;;;5049262;28;20032;-62
2022/06/08 03:53:51;;;;;;;0.00;0.00;;;;;;;;;;5061092;28;20021;-63
2022/06/08 03:56:17;;;;;;;0.00;0.00;;;;;;;;;;5062011;28;20063;-64
2022/06/08 03:58:43;;;;;;;0.00;0.00;;;;;;;;;;5061131;28;20017;-63
2022/06/08 04:01:08;;;;;;;0.00;0.00;;;;;;;;;;5068627;28;20104;-63
2022/06/08 04:03:33;;;;;;;0.00;0.00;;;;;;;;;;5059864;28;20028;-64
2022/06/08 04:06:00;;;;;;;0.00;0.00;;;;;;;;;;5068149;28;20386;-63
2022/06/08 04:08:26;;;;;;;0.00;0.00;;;;;;;;;;5066074;28;20052;-63
2022/06/08 04:10:51;;;;;;;0.00;0.00;;;;;;;;;;5062003;28;20522;-62
2022/06/08 04:13:16;;;;;;;0.00;0.00;;;;;;;;;;5061430;28;20052;-62
2022/06/08 04:15:42;;;;;;;0.00;0.00;;;;;;;;;;5061826;28;20067;-65
2022/06/08 04:18:07;;;;;;;0.00;0.00;;;;;;;;;;5067138;28;20040;-62
2022/06/08 04:20:34;;;;;;;0.00;0.00;;;;;;;;;;5053183;28;20053;-63
2022/06/08 04:23:00;;;;;;;0.00;0.00;;;;;;;;;;5058150;28;20020;-64
2022/06/08 04:25:25;;;;;;;0.00;0.00;;;;;;;;;;5061466;28;20016;-64
2022/06/08 04:27:50;;;;;;;0.00;0.00;;;;;;;;;;5067143;28;20474;-64
2022/06/08 04:30:15;;;;;;;0.20;0.20;;;;;;;;;;5066948;28;20131;-63
2022/06/08 04:32:41;;;;;;;0.00;0.00;;;;;;;;;;5067303;28;20028;-64
2022/06/08 04:35:07;;;;;;;0.00;0.00;;;;;;;;;;5061036;28;20489;-63
2022/06/08 04:37:33;;;;;;;0.00;0.00;;;;;;;;;;5063629;28;20098;-64
2022/06/08 04:39:58;;;;;;;0.00;0.00;;;;;;;;;;5059667;28;20450;-64
2022/06/08 04:42:23;;;;;;;0.00;0.00;;;;;;;;;;5065724;28;20024;-63
2022/06/08 04:44:49;;;;;;;0.00;0.00;;;;;;;;;;5065123;28;20021;-64
2022/06/08 04:47:14;;;;;;;0.00;0.00;;;;;;;;;;5055197;28;20039;-64
2022/06/08 04:49:39;;;;;;;5.68;3.40;;;;;;;;;;5050150;28;20413;-64
2022/06/08 04:52:05;;;;;;;0.00;0.00;;;;;;;;;;5055745;28;20377;-63
2022/06/08 04:54:30;;;;;;;0.00;0.00;;;;;;;;;;5060520;28;20111;-63
2022/06/08 04:56:56;;;;;;;0.00;0.00;;;;;;;;;;5065817;28;20027;-64
2022/06/08 04:59:21;;;;;;;0.00;0.00;;;;;;;;;;5067335;28;20107;-64
2022/06/08 05:01:46;;;;;;;0.00;0.00;;;;;;;;;;5056371;28;20035;-64
2022/06/08 05:04:12;;;;;;;0.00;0.00;;;;;;;;;;5042319;28;20023;-64
2022/06/08 05:06:37;;;;;;;0.00;0.00;;;;;;;;;;5059494;28;20480;-64
2022/06/08 05:09:03;;;;;;;0.00;0.00;;;;;;;;;;5046754;28;20029;-64
2022/06/08 05:11:28;;;;;;;0.00;0.00;;;;;;;;;;5062749;28;20504;-63
2022/06/08 05:13:54;;;;;;;0.00;0.00;;;;;;;;;;5064576;28;20032;-64
2022/06/08 05:16:19;;;;;;;0.00;0.00;;;;;;;;;;5061676;28;20474;-63
2022/06/08 05:18:44;;;;;;;0.00;0.00;;;;;;;;;;5046673;28;20373;-63
2022/06/08 05:21:09;;;;;;;0.00;0.00;;;;;;;;;;5059563;28;20380;-63
2022/06/08 05:23:36;;;;;;;0.00;0.00;;;;;;;;;;5066243;28;20016;-63
2022/06/08 05:26:02;;;;;;;0.00;0.00;;;;;;;;;;5065463;28;20068;-63
2022/06/08 05:28:28;;;;;;;0.00;0.00;;;;;;;;;;5059465;28;20086;-63
2022/06/08 05:30:56;;;;;;;0.00;0.00;;;;;;;;;;5065337;28;20056;-64
2022/06/08 05:33:22;;;;;;;0.00;0.00;;;;;;;;;;5060699;28;20174;-65
2022/06/08 05:35:47;;;;;;;0.00;0.00;;;;;;;;;;5059656;28;20471;-67
2022/06/08 05:38:13;;;;;;;0.75;0.75;;;;;;;;;;5064896;28;20016;-66
2022/06/08 05:40:38;;;;;;;0.10;0.10;;;;;;;;;;5066564;28;20021;-65
2022/06/08 05:43:05;;;;;;;0.00;0.00;;;;;;;;;;5062478;28;20035;-65
2022/06/08 05:45:30;;;;;;;0.00;0.00;;;;;;;;;;5053023;28;20075;-65
2022/06/08 05:47:56;;;;;;;0.55;0.55;;;;;;;;;;5055441;28;20017;-65
2022/06/08 05:50:21;;;;;;;0.00;0.00;;;;;;;;;;5054933;28;20029;-65
2022/06/08 05:52:47;;;;;;;0.00;0.00;;;;;;;;;;5055056;28;20024;-66
2022/06/08 05:55:13;;;;;;;0.00;0.00;;;;;;;;;;5059363;28;20078;-66
2022/06/08 05:57:38;;;;;;;0.00;0.00;;;;;;;;;;5064561;28;20108;-65
2022/06/08 06:00:05;;;;;;;0.00;0.00;;;;;;;;;;5059888;28;20053;-64
2022/06/08 06:02:30;;;;;;;0.00;0.00;;;;;;;;;;5065605;28;20059;-66
2022/06/08 06:04:56;;;;;;;0.00;0.00;;;;;;;;;;5062309;28;20555;-65
2022/06/08 06:07:21;;;;;;;0.00;0.00;;;;;;;;;;5031958;28;20025;-65
2022/06/08 06:09:47;;;;;;;0.10;0.10;;;;;;;;;;5055468;28;20032;-65
2022/06/08 06:12:12;;;;;;;0.00;0.00;;;;;;;;;;5059886;28;20091;-65
2022/06/08 06:14:37;;;;;;;0.00;0.00;;;;;;;;;;5056055;28;20029;-66
2022/06/08 06:17:02;;;;;;;0.00;0.00;;;;;;;;;;5056751;28;20028;-66
2022/06/08 06:19:28;;;;;;;0.00;0.00;;;;;;;;;;5064655;28;20024;-65
2022/06/08 06:21:53;;;;;;;0.00;0.00;;;;;;;;;;5052739;28;20021;-65
2022/06/08 06:24:18;;;;;;;0.00;0.00;;;;;;;;;;5058926;28;20035;-65
2022/06/08 06:26:44;;;;;;;0.00;0.00;;;;;;;;;;5062669;28;20559;-66
2022/06/08 06:29:10;;;;;;;5.82;1.27;;;;;;;;;;5063959;28;20066;-64
2022/06/08 06:31:41;;;;;;;0.00;0.00;;;;;;;;;;5055749;28;20021;-65
2022/06/08 06:34:09;;;;;;;0.00;0.00;;;;;;;;;;5053500;28;20017;-66
2022/06/08 06:36:34;;;;;;;0.05;0.05;;;;;;;;;;5061078;28;20028;-66
2022/06/08 06:38:59;;;;;;;0.00;0.00;;;;;;;;;;5063939;28;20406;-66
2022/06/08 06:41:26;;;;;;;33.70;27.80;;;;;;;;;;5064084;28;20078;-66
2022/06/08 06:43:52;;;;;;;0.00;0.00;;;;;;;;;;5052368;28;20045;-65
2022/06/08 06:46:17;;;;;;;0.00;0.00;;;;;;;;;;5055128;28;20027;-65
2022/06/08 06:48:43;;;;;;;0.00;0.00;;;;;;;;;;5060592;28;20031;-65
2022/06/08 06:51:10;;;;;;;0.00;0.00;;;;;;;;;;5054877;28;20056;-66
2022/06/08 06:53:35;;;;;;;0.00;0.00;;;;;;;;;;5058627;28;20038;-65
2022/06/08 06:56:00;;;;;;;0.00;0.00;;;;;;;;;;5057674;28;20139;-65
2022/06/08 06:58:25;;;;;;;0.00;0.00;;;;;;;;;;5061386;28;20016;-65
2022/06/08 07:00:51;;;;;;;0.00;0.00;;;;;;;;;;5060559;28;20056;-64
2022/06/08 07:03:16;;;;;;;0.00;0.00;;;;;;;;;;5063430;28;20049;-64
2022/06/08 07:05:41;;;;;;;0.00;0.00;;;;;;;;;;5052868;28;20059;-65
2022/06/08 07:08:07;;;;;;;0.13;0.13;;;;;;;;;;5065519;28;20456;-65
2022/06/08 07:10:33;;;;;;;0.73;0.73;;;;;;;;;;5065064;28;20104;-63
2022/06/08 07:12:58;;;;;;;0.00;0.00;;;;;;;;;;5051753;28;20394;-63
2022/06/08 07:15:23;;;;;;;0.00;0.00;;;;;;;;;;5062725;28;20025;-65
2022/06/08 07:17:49;;;;;;;0.20;0.20;;;;;;;;;;5058892;28;20462;-64
2022/06/08 07:20:18;;;;;;;0.65;0.65;;;;;;;;;;5067303;28;20402;-64
2022/06/08 07:22:43;;;;;;;;;;;;;;;;;;5068985;28;20044;-62
2022/06/08 07:25:09;;;;;;;0.00;0.00;;;;;;;;;;5067470;28;19970;-64
2022/06/08 07:27:34;;;;;;;1.77;1.65;;;;;;;;;;5062096;28;20116;-64
2022/06/08 07:30:00;;;;;;;0.00;0.00;;;;;;;;;;5066459;28;20060;-64
2022/06/08 07:32:25;;;;;;;0.00;0.00;;;;;;;;;;5055812;28;20103;-65
2022/06/08 07:34:51;;;;;;;0.13;0.13;;;;;;;;;;5062392;28;20016;-66
2022/06/08 07:37:16;;;;;;;0.10;0.10;;;;;;;;;;5067198;28;20016;-64
2022/06/08 07:39:41;;;;;;;0.00;0.00;;;;;;;;;;5062181;28;20744;-65
2022/06/08 07:42:07;;;;;;;0.00;0.00;;;;;;;;;;5028633;28;20033;-64
2022/06/08 07:44:32;;;;;;;0.00;0.00;;;;;;;;;;5067306;28;20029;-64
2022/06/08 07:46:58;;;;;;;0.00;0.00;;;;;;;;;;5064097;28;20039;-65
2022/06/08 07:49:39;;;;;;;0.00;0.00;;;;;;;;;;5067757;28;20112;-65
2022/06/08 07:52:12;;;;;;;0.00;0.00;;;;;;;;;;5054530;28;20071;-64
2022/06/08 07:54:38;;;;;;;0.00;0.00;;;;;;;;;;5062209;28;20021;-64
2022/06/08 07:57:04;;;;;;;0.00;0.00;;;;;;;;;;5067637;28;20016;-64
2022/06/08 07:59:30;;;;;;;0.00;0.00;;;;;;;;;;5063394;28;20081;-64
2022/06/08 08:01:57;;;;;;;0.28;0.28;;;;;;;;;;5055381;28;20455;-64
2022/06/08 08:04:22;;;;;;;0.57;0.57;;;;;;;;;;5059357;28;20021;-64
2022/06/08 08:06:48;;;;;;;0.00;0.00;;;;;;;;;;5060408;28;20028;-64
2022/06/08 08:09:17;;;;;;;0.00;0.00;;;;;;;;;;5062980;28;20442;-64
2022/06/08 08:11:43;;;;;;;0.00;0.00;;;;;;;;;;5053287;28;20021;-64
2022/06/08 08:14:08;;;;;;;0.00;0.00;;;;;;;;;;5044929;28;20025;-64
2022/06/08 08:16:34;;;;;;;0.00;0.00;;;;;;;;;;5055893;28;20056;-64
2022/06/08 08:18:59;;;;;;;0.65;0.20;;;;;;;;;;5063353;28;20271;-66
2022/06/08 08:21:24;;;;;;;0.00;0.00;;;;;;;;;;5064936;28;20025;-64
2022/06/08 08:23:50;;;;;;;0.05;0.05;;;;;;;;;;5068427;28;20290;-65
2022/06/08 08:26:15;;;;;;;0.00;0.00;;;;;;;;;;5066601;28;20134;-63
2022/06/08 08:28:41;;;;;;;0.35;0.35;;;;;;;;;;5062058;28;20112;-63
2022/06/08 08:31:06;;;;;;;0.10;0.10;;;;;;;;;;5062361;28;20040;-63
2022/06/08 08:33:31;;;;;;;0.00;0.00;;;;;;;;;;5057052;28;20047;-64
2022/06/08 08:35:57;;;;;;;0.00;0.00;;;;;;;;;;5046510;28;20287;-65
2022/06/08 08:38:23;;;;;;;0.00;0.00;;;;;;;;;;5048209;28;20021;-66
2022/06/08 08:40:51;;;;;;;0.00;0.00;;;;;;;;;;5049200;28;20106;-65
2022/06/08 08:43:21;;;;;;;0.00;0.00;;;;;;;;;;5056991;28;20012;-64
2022/06/08 08:46:05;;;;;;;0.60;0.43;;;;;;;;;;5059167;28;20029;-65
2022/06/08 08:48:39;;;;;;;0.10;0.10;;;;;;;;;;5054922;28;20039;-65
2022/06/08 08:51:09;;;;;;;0.00;0.00;;;;;;;;;;5065621;28;20048;-63
2022/06/08 08:53:52;;;;;;;0.00;0.00;;;;;;;;;;5066779;28;20032;-64
2022/06/08 08:56:22;;;;;;;0.00;0.00;;;;;;;;;;5057653;28;20031;-64
2022/06/08 08:58:48;;;;;;;0.08;0.03;;;;;;;;;;5058816;28;20028;-67
2022/06/08 09:01:17;;;;;;;0.00;0.00;;;;;;;;;;5051895;28;20035;-61
2022/06/08 09:03:42;;;;;;;;;;;;;;;;;;5054385;28;20017;-61
2022/06/08 09:06:12;;;;;;;0.07;0.07;;;;;;;;;;5057673;28;20339;-59
2022/06/08 09:08:37;;;;;;;0.00;0.00;;;;;;;;;;5047152;28;20385;-59
2022/06/08 09:11:03;;;;;;;0.00;0.00;;;;;;;;;;5063923;28;20020;-59
2022/06/08 09:13:33;;;;;;;0.40;0.40;;;;;;;;;;5053978;28;20045;-58
2022/06/08 09:15:59;;;;;;;0.00;0.00;;;;;;;;;;5058076;28;20134;-58
2022/06/08 09:18:27;;;;;;;0.00;0.00;;;;;;;;;;5060871;28;20040;-60
2022/06/08 09:20:52;;;;;;;0.05;0.05;;;;;;;;;;5055761;28;20492;-60
2022/06/08 09:23:38;;;;;;;0.00;0.00;;;;;;;;;;5061506;28;20033;-60
2022/06/08 09:26:07;;;;;;;0.00;0.00;;;;;;;;;;5055235;28;20115;-60
2022/06/08 09:28:33;;;;;;;0.00;0.00;;;;;;;;;;5063653;28;20033;-60
2022/06/08 09:30:59;;;;;;;0.00;0.00;;;;;;;;;;5063889;28;20056;-60
2022/06/08 09:33:31;;;;;;;0.00;0.00;;;;;;;;;;5067210;28;20055;-60
2022/06/08 09:35:58;;;;;;;0.85;0.75;;;;;;;;;;5056871;28;20362;-59
2022/06/08 09:38:24;;;;;;;0.00;0.00;;;;;;;;;;5059505;28;20538;-60
2022/06/08 09:40:53;;;;;;;2.72;2.55;;;;;;;;;;5063765;28;20021;-60
2022/06/08 09:43:38;;;;;;;0.00;0.00;;;;;;;;;;5056375;28;20025;-60
2022/06/08 09:46:03;;;;;;;0.10;0.10;;;;;;;;;;5046078;28;20021;-61
2022/06/08 09:51:31;;;;;;;0.00;0.00;;;;;;;;;;5046215;28;20512;-59
2022/06/08 09:54:15;;;;;;;0.00;0.00;;;;;;;;;;5048299;28;20020;-59
2022/06/08 09:56:59;;;;;;;0.00;0.00;;;;;;;;;;5059584;28;20474;-60
2022/06/08 09:59:24;;;;;;;0.00;0.00;;;;;;;;;;5059570;28;20028;-61
2022/06/08 10:01:56;;;;;;;0.00;0.00;;;;;;;;;;5059309;28;20025;-61
2022/06/08 10:04:26;;;;;;;0.00;0.00;;;;;;;;;;5053215;28;20290;-61
2022/06/08 10:07:04;;;;;;;0.00;0.00;;;;;;;;;;5043448;28;20039;-61
2022/06/08 10:09:29;;;;;;;6.45;6.13;;;;;;;;;;5054534;28;20033;-61
2022/06/08 10:11:54;;;;;;;0.00;0.00;;;;;;;;;;5055114;28;20021;-62
2022/06/08 10:14:31;;;;;;;0.17;0.13;;;;;;;;;;5058630;28;20020;-62
2022/06/08 10:17:05;;;;;;;0.00;0.00;;;;;;;;;;5059362;28;20732;-61
2022/06/08 10:19:46;;;;;;;0.10;0.05;;;;;;;;;;5038472;28;20741;-61
2022/06/08 10:22:12;;;;;;;0.00;0.00;;;;;;;;;;5025300;28;20621;-62
2022/06/08 10:24:45;;;;;;;0.00;0.00;;;;;;;;;;5042618;28;20021;-62
2022/06/08 10:27:13;;;;;;;0.00;0.00;;;;;;;;;;5042758;28;20035;-62
2022/06/08 10:29:45;;;;;;;0.83;0.73;;;;;;;;;;5052757;28;20392;-61
2022/06/08 10:32:14;;;;;;;0.00;0.00;;;;;;;;;;5053255;28;20494;-61
2022/06/08 10:34:39;;;;;;;0.00;0.00;;;;;;;;;;5047244;28;20025;-60
2022/06/08 10:37:10;;;;;;;0.17;0.10;;;;;;;;;;5047368;28;20500;-60
2022/06/08 10:39:38;;;;;;;0.10;0.10;;;;;;;;;;5044014;28;20386;-60
2022/06/08 10:44:58;;;;;;;0.00;0.00;;;;;;;;;;5051158;28;20075;-60
2022/06/08 10:47:29;;;;;;;0.00;0.00;;;;;;;;;;5060744;28;20044;-60
2022/06/08 10:49:54;;;;;;;0.00;0.00;;;;;;;;;;5037481;28;20024;-60
2022/06/08 10:52:20;;;;;;;0.00;0.00;;;;;;;;;;5057451;28;20029;-60
2022/06/08 10:55:05;;;;;;;0.00;0.00;;;;;;;;;;5061429;28;20484;-60
2022/06/08 10:57:36;;;;;;;0.20;0.20;;;;;;;;;;5034692;28;20115;-60
2022/06/08 11:00:25;;;;;;;0.00;0.00;;;;;;;;;;5060294;28;20025;-59
2022/06/08 11:02:53;;;;;;;0.10;0.10;;;;;;;;;;5033109;28;20037;-60
2022/06/08 11:05:33;;;;;;;0.00;0.00;;;;;;;;;;5053728;28;20041;-59
2022/06/08 11:07:59;;;;;;;0.00;0.00;;;;;;;;;;5031238;28;20063;-60
2022/06/08 11:11:01;;;;;;;0.38;0.38;;;;;;;;;;5056881;28;20029;-59
2022/06/08 11:13:35;;;;;;;0.00;0.00;;;;;;;;;;4956591;28;20038;-61
2022/06/08 11:16:14;;;;;;;0.00;0.00;;;;;;;;;;5039401;28;20033;-59
2022/06/08 11:18:46;;;;;;;0.00;0.00;;;;;;;;;;5061436;28;20111;-60
2022/06/08 11:21:21;;;;;;;0.00;0.00;;;;;;;;;;5058055;28;20032;-61
2022/06/08 11:23:59;;;;;;;0.00;0.00;;;;;;;;;;5058078;28;20051;-61
2022/06/08 11:26:28;;;;;;;0.00;0.00;;;;;;;;;;5055191;28;20024;-60
2022/06/08 11:28:54;;;;;;;;;;;;;;;;;;5058025;28;20021;-61
2022/06/08 11:31:26;;;;;;;0.00;0.00;;;;;;;;;;5054160;28;19939;-61
2022/06/08 11:34:03;;;;;;;0.25;0.17;;;;;;;;;;5047023;28;20040;-61
2022/06/08 11:36:38;;;;;;;0.00;0.00;;;;;;;;;;5044367;28;20029;-61
2022/06/08 11:39:05;;;;;;;0.00;0.00;;;;;;;;;;5040085;28;20543;-61
2022/06/08 11:41:35;;;;;;;0.00;0.00;;;;;;;;;;5047473;28;20115;-60
2022/06/08 11:44:03;;;;;;;0.00;0.00;;;;;;;;;;5044163;28;20063;-60
2022/06/08 11:46:28;;;;;;;0.00;0.00;;;;;;;;;;5047127;28;20555;-60
2022/06/08 11:48:54;;;;;;;0.20;0.17;;;;;;;;;;5043777;28;20060;-60
2022/06/08 11:51:32;;;;;;;0.00;0.00;;;;;;;;;;5043533;28;20275;-61
2022/06/08 11:53:58;;;;;;;1.85;0.65;;;;;;;;;;5047901;28;20039;-60
2022/06/08 11:56:33;;;;;;;0.00;0.00;;;;;;;;;;5046383;28;20032;-60
2022/06/08 11:59:02;;;;;;;0.00;0.00;;;;;;;;;;5046470;28;20100;-60
2022/06/08 12:01:27;;;;;;;;;;;;;;;;;;5047203;28;20044;-60
2022/06/08 12:03:58;;;;;;;0.00;0.00;;;;;;;;;;5046478;28;19932;-60
2022/06/08 12:06:24;;;;;;;0.00;0.00;;;;;;;;;;5046366;28;20033;-60
2022/06/08 12:08:52;;;;;;;0.00;0.00;;;;;;;;;;5048854;28;20033;-60
2022/06/08 12:11:20;;;;;;;0.00;0.00;;;;;;;;;;5056254;28;20196;-60
2022/06/08 12:13:57;;;;;;;0.80;0.80;;;;;;;;;;5053508;28;20541;-60
2022/06/08 12:16:22;;;;;;;4.85;4.38;;;;;;;;;;5062545;28;20497;-60
2022/06/08 12:18:55;;;;;;;0.00;0.00;;;;;;;;;;5058227;28;20093;-60
2022/06/08 12:21:28;;;;;;;0.00;0.00;;;;;;;;;;5049040;28;20021;-59
2022/06/08 12:24:00;;;;;;;0.00;0.00;;;;;;;;;;5049990;28;20385;-60
2022/06/08 12:26:27;;;;;;;0.00;0.00;;;;;;;;;;5061586;28;20398;-59
2022/06/08 12:29:19;;;;;;;0.75;0.75;;;;;;;;;;5055510;28;20777;-60
2022/06/08 12:31:44;;;;;;;0.00;0.00;;;;;;;;;;5048356;28;20048;-59
2022/06/08 12:34:26;;;;;;;0.00;0.00;;;;;;;;;;5061507;28;20034;-61
2022/06/08 12:36:52;;;;;;;0.00;0.00;;;;;;;;;;5050950;28;20079;-61
2022/06/08 12:39:24;;;;;;;0.00;0.00;;;;;;;;;;5057543;28;20024;-61
2022/06/08 12:41:54;;;;;;;0.00;0.00;;;;;;;;;;5029202;28;20470;-61
2022/06/08 12:44:21;;;;;;;0.00;0.00;;;;;;;;;;5055088;28;20050;-62
2022/06/08 12:46:48;;;;;;;0.00;0.00;;;;;;;;;;5062406;28;20513;-62
2022/06/08 12:49:16;;;;;;;0.00;0.00;;;;;;;;;;5059724;28;20056;-61
2022/06/08 12:51:43;;;;;;;7.47;1.05;;;;;;;;;;5043461;28;20067;-61
2022/06/08 12:54:13;;;;;;;0.10;0.10;;;;;;;;;;5062677;28;20024;-61
2022/06/08 12:56:39;;;;;;;0.00;0.00;;;;;;;;;;5058382;28;20813;-61
2022/06/08 12:59:04;;;;;;;0.00;0.00;;;;;;;;;;5040514;28;20036;-61
2022/06/08 13:01:30;;;;;;;0.00;0.00;;;;;;;;;;5052159;28;20048;-62
2022/06/08 13:03:55;;;;;;;0.00;0.00;;;;;;;;;;5060448;28;20124;-61
2022/06/08 13:06:21;;;;;;;0.00;0.00;;;;;;;;;;5051528;28;20652;-61
2022/06/08 13:08:48;;;;;;;0.00;0.00;;;;;;;;;;5052942;28;20354;-62
2022/06/08 13:11:19;;;;;;;0.00;0.00;;;;;;;;;;5056656;28;20063;-61
2022/06/08 13:13:44;;;;;;;0.00;0.00;;;;;;;;;;5042964;28;20039;-61
2022/06/08 13:16:12;;;;;;;0.00;0.00;;;;;;;;;;5050416;28;20021;-62
2022/06/08 13:18:38;;;;;;;0.20;0.20;;;;;;;;;;5051374;28;20068;-61
2022/06/08 13:21:06;;;;;;;0.10;0.10;;;;;;;;;;5052684;28;20377;-61
2022/06/08 13:23:31;;;;;;;0.00;0.00;;;;;;;;;;5045411;28;20051;-61
2022/06/08 13:25:57;;;;;;;0.00;0.00;;;;;;;;;;5045402;28;20053;-61
2022/06/08 13:28:24;;;;;;;0.00;0.00;;;;;;;;;;5043841;28;20037;-61
2022/06/08 13:30:50;;;;;;;0.00;0.00;;;;;;;;;;5056883;28;20048;-62
2022/06/08 13:36:05;;;;;;;0.00;0.00;;;;;;;;;;5055814;28;20106;-61
2022/06/08 13:38:30;;;;;;;0.00;0.00;;;;;;;;;;5042177;28;20024;-65
2022/06/08 13:40:56;;;;;;;0.00;0.00;;;;;;;;;;5049669;28;20051;-64
2022/06/08 13:43:24;;;;;;;0.00;0.00;;;;;;;;;;5061892;28;20024;-64
2022/06/08 13:45:49;;;;;;;0.00;0.00;;;;;;;;;;5048393;28;20115;-61
2022/06/08 13:48:19;;;;;;;0.00;0.00;;;;;;;;;;5050866;28;20035;-61
2022/06/08 13:50:48;;;;;;;0.00;0.00;;;;;;;;;;5051563;28;20130;-61
2022/06/08 13:53:16;;;;;;;1.35;1.35;;;;;;;;;;5049088;28;20793;-61
2022/06/08 13:55:44;;;;;;;0.00;0.00;;;;;;;;;;5038887;28;20788;-61
2022/06/08 13:58:12;;;;;;;0.00;0.00;;;;;;;;;;5042094;28;20047;-61
2022/06/08 14:00:57;;;;;;;0.00;0.00;;;;;;;;;;5044065;28;20117;-63
2022/06/08 14:03:23;;;;;;;0.00;0.00;;;;;;;;;;5040758;28;20041;-62
2022/06/08 14:14:07;;;;;;;0.00;0.00;;;;;;;;;;5041335;28;20044;-62
2022/06/08 14:16:35;;;;;;;0.00;0.00;;;;;;;;;;5044843;28;20033;-61
2022/06/08 14:19:01;;;;;;;0.00;0.00;;;;;;;;;;5044333;28;20102;-63
2022/06/08 14:21:26;;;;;;;0.00;0.00;;;;;;;;;;5044203;28;20016;-62
2022/06/08 14:23:54;;;;;;;0.00;0.00;;;;;;;;;;5027005;28;20031;-62
2022/06/08 14:26:20;;;;;;;0.00;0.00;;;;;;;;;;5046680;28;20401;-63
2022/06/08 14:28:47;;;;;;;0.00;0.00;;;;;;;;;;5045599;28;20025;-62
2022/06/08 14:31:36;;;;;;;0.00;0.00;;;;;;;;;;5045046;28;20056;-60
2022/06/08 14:34:03;;;;;;;0.00;0.00;;;;;;;;;;5053431;28;20070;-61
2022/06/08 14:36:29;;;;;;;2.83;0.15;;;;;;;;;;5057428;28;20047;-61
2022/06/08 14:38:54;;;;;;;0.00;0.00;;;;;;;;;;5059059;28;20400;-61
2022/06/08 14:41:19;;;;;;;0.00;0.00;;;;;;;;;;5066126;28;20482;-62
2022/06/08 14:43:44;;;;;;;0.00;0.00;;;;;;;;;;5065341;28;20029;-62
2022/06/08 14:46:13;;;;;;;0.05;0.05;;;;;;;;;;5065251;28;20095;-60
2022/06/08 14:48:43;;;;;;;0.00;0.00;;;;;;;;;;5055059;28;20028;-61
2022/06/08 14:51:13;;;;;;;0.00;0.00;;;;;;;;;;5055843;28;20115;-61
2022/06/08 14:53:38;;;;;;;0.00;0.00;;;;;;;;;;5042899;28;20029;-61
2022/06/08 14:56:25;;;;;;;0.00;0.00;;;;;;;;;;5052035;28;20028;-61
2022/06/08 14:58:56;;;;;;;0.00;0.00;;;;;;;;;;5050339;28;20051;-61
2022/06/08 15:01:23;;;;;;;0.00;0.00;;;;;;;;;;5053876;28;20056;-61
2022/06/08 15:03:48;;;;;;;0.00;0.00;;;;;;;;;;5045413;28;20036;-62
2022/06/08 15:06:14;;;;;;;0.90;0.30;;;;;;;;;;5055046;28;20033;-62